Terminal Aerodrome Forecast
Issued by NWS

Home | Current Version | Previous Version | Text Only | Print | Product List | Glossary On
Versions: 1 2 3 4 5 6 7 8 9 10 11 12 13 14 15 16 17 18 19 20 21 22 23 24 25 26 27 28 29 30 31 32 33 34 35
955
FTUS41 KALY 040129 AAB
TAFPSF
TAF AMD
KPSF 040129Z 0401/0424 32010G17KT P6SM SCT026 OVC035
      TEMPO 0401/0405 BKN025
     FM041200 32008KT P6SM SCT025 BKN040
     FM041800 31006KT P6SM SCT040=

USA.gov is the U.S. government's official web portal to all federal, state and local government web resources and services.